sensor_id;sensor_type;location;lat;lon;timestamp;P1;durP1;ratioP1;P2;durP2;ratioP2
11531;SDS011;5822;51.000;5.874;2023-04-24T00:00:13;19.23;;;18.03;;
11531;SDS011;5822;51.000;5.874;2023-04-24T00:02:40;18.92;;;17.73;;
11531;SDS011;5822;51.000;5.874;2023-04-24T00:05:09;19.33;;;18.13;;
11531;SDS011;5822;51.000;5.874;2023-04-24T00:07:35;19.13;;;17.92;;
11531;SDS011;5822;51.000;5.874;2023-04-24T00:10:01;18.30;;;17.20;;
11531;SDS011;5822;51.000;5.874;2023-04-24T00:12:26;18.52;;;17.42;;
11531;SDS011;5822;51.000;5.874;2023-04-24T00:14:52;18.70;;;17.60;;
11531;SDS011;5822;51.000;5.874;2023-04-24T00:17:18;18.10;;;17.10;;
11531;SDS011;5822;51.000;5.874;2023-04-24T00:19:47;21.83;;;20.63;;
11531;SDS011;5822;51.000;5.874;2023-04-24T00:22:13;18.50;;;17.40;;
11531;SDS011;5822;51.000;5.874;2023-04-24T00:24:39;19.20;;;18.10;;
11531;SDS011;5822;51.000;5.874;2023-04-24T00:27:05;19.58;;;18.38;;
11531;SDS011;5822;51.000;5.874;2023-04-24T00:29:31;18.57;;;17.47;;
11531;SDS011;5822;51.000;5.874;2023-04-24T00:31:56;19.30;;;18.10;;
11531;SDS011;5822;51.000;5.874;2023-04-24T00:34:22;18.80;;;17.60;;
11531;SDS011;5822;51.000;5.874;2023-04-24T00:36:48;18.90;;;17.80;;
11531;SDS011;5822;51.000;5.874;2023-04-24T00:39:18;19.55;;;18.35;;
11531;SDS011;5822;51.000;5.874;2023-04-24T00:41:44;19.10;;;18.00;;
11531;SDS011;5822;51.000;5.874;2023-04-24T00:44:10;18.90;;;17.80;;
11531;SDS011;5822;51.000;5.874;2023-04-24T00:46:36;19.33;;;18.13;;
11531;SDS011;5822;51.000;5.874;2023-04-24T00:49:02;19.23;;;18.10;;
11531;SDS011;5822;51.000;5.874;2023-04-24T00:51:29;19.05;;;17.95;;
11531;SDS011;5822;51.000;5.874;2023-04-24T00:53:55;18.52;;;17.42;;
11531;SDS011;5822;51.000;5.874;2023-04-24T00:56:21;17.90;;;16.90;;
11531;SDS011;5822;51.000;5.874;2023-04-24T00:58:48;19.50;;;18.30;;
11531;SDS011;5822;51.000;5.874;2023-04-24T01:01:14;18.27;;;17.27;;
11531;SDS011;5822;51.000;5.874;2023-04-24T01:03:40;20.37;;;19.17;;
11531;SDS011;5822;51.000;5.874;2023-04-24T01:06:06;19.55;;;18.35;;
11531;SDS011;5822;51.000;5.874;2023-04-24T01:08:32;20.00;;;18.80;;
11531;SDS011;5822;51.000;5.874;2023-04-24T01:10:59;20.63;;;19.33;;
11531;SDS011;5822;51.000;5.874;2023-04-24T01:13:28;20.15;;;18.95;;
11531;SDS011;5822;51.000;5.874;2023-04-24T01:15:54;19.90;;;18.70;;
11531;SDS011;5822;51.000;5.874;2023-04-24T01:18:20;18.67;;;17.58;;
11531;SDS011;5822;51.000;5.874;2023-04-24T01:20:46;19.77;;;18.58;;
11531;SDS011;5822;51.000;5.874;2023-04-24T01:23:15;20.50;;;19.30;;
11531;SDS011;5822;51.000;5.874;2023-04-24T01:25:42;21.08;;;19.77;;
11531;SDS011;5822;51.000;5.874;2023-04-24T01:28:07;21.50;;;20.20;;
11531;SDS011;5822;51.000;5.874;2023-04-24T01:30:33;21.03;;;19.73;;
11531;SDS011;5822;51.000;5.874;2023-04-24T01:33:03;20.63;;;19.33;;
11531;SDS011;5822;51.000;5.874;2023-04-24T01:35:30;21.50;;;20.10;;
11531;SDS011;5822;51.000;5.874;2023-04-24T01:37:55;21.13;;;19.83;;
11531;SDS011;5822;51.000;5.874;2023-04-24T01:40:21;20.10;;;18.90;;
11531;SDS011;5822;51.000;5.874;2023-04-24T01:42:47;20.75;;;19.52;;
11531;SDS011;5822;51.000;5.874;2023-04-24T01:45:13;20.75;;;19.48;;
11531;SDS011;5822;51.000;5.874;2023-04-24T01:47:38;21.10;;;19.80;;
11531;SDS011;5822;51.000;5.874;2023-04-24T01:50:05;21.60;;;20.20;;
11531;SDS011;5822;51.000;5.874;2023-04-24T01:52:31;21.30;;;19.90;;
11531;SDS011;5822;51.000;5.874;2023-04-24T01:55:04;22.15;;;20.75;;
11531;SDS011;5822;51.000;5.874;2023-04-24T01:57:31;20.92;;;19.63;;
11531;SDS011;5822;51.000;5.874;2023-04-24T01:59:57;20.37;;;19.17;;
11531;SDS011;5822;51.000;5.874;2023-04-24T02:02:23;20.97;;;19.67;;
11531;SDS011;5822;51.000;5.874;2023-04-24T02:04:49;21.02;;;19.73;;
11531;SDS011;5822;51.000;5.874;2023-04-24T02:07:15;21.08;;;19.67;;
11531;SDS011;5822;51.000;5.874;2023-04-24T02:09:41;21.20;;;19.90;;
11531;SDS011;5822;51.000;5.874;2023-04-24T02:12:06;20.17;;;18.97;;
11531;SDS011;5822;51.000;5.874;2023-04-24T02:14:32;20.27;;;19.00;;
11531;SDS011;5822;51.000;5.874;2023-04-24T02:16:58;19.67;;;18.58;;
11531;SDS011;5822;51.000;5.874;2023-04-24T02:19:23;19.45;;;18.35;;
11531;SDS011;5822;51.000;5.874;2023-04-24T02:21:49;20.65;;;19.45;;
11531;SDS011;5822;51.000;5.874;2023-04-24T02:24:15;20.00;;;18.80;;
11531;SDS011;5822;51.000;5.874;2023-04-24T02:26:41;18.95;;;17.85;;
11531;SDS011;5822;51.000;5.874;2023-04-24T02:29:07;20.02;;;18.83;;
11531;SDS011;5822;51.000;5.874;2023-04-24T02:31:32;19.70;;;18.50;;
11531;SDS011;5822;51.000;5.874;2023-04-24T02:33:58;20.40;;;19.20;;
11531;SDS011;5822;51.000;5.874;2023-04-24T02:36:24;19.65;;;18.55;;
11531;SDS011;5822;51.000;5.874;2023-04-24T02:38:50;19.88;;;18.77;;
11531;SDS011;5822;51.000;5.874;2023-04-24T02:41:16;19.80;;;18.70;;
11531;SDS011;5822;51.000;5.874;2023-04-24T02:43:41;19.70;;;18.50;;
11531;SDS011;5822;51.000;5.874;2023-04-24T02:46:07;19.90;;;18.70;;
11531;SDS011;5822;51.000;5.874;2023-04-24T02:48:32;18.97;;;17.90;;
11531;SDS011;5822;51.000;5.874;2023-04-24T02:50:58;19.50;;;18.30;;
11531;SDS011;5822;51.000;5.874;2023-04-24T02:53:24;20.10;;;18.90;;
11531;SDS011;5822;51.000;5.874;2023-04-24T02:55:50;19.47;;;18.37;;
11531;SDS011;5822;51.000;5.874;2023-04-24T02:58:15;19.40;;;18.20;;
11531;SDS011;5822;51.000;5.874;2023-04-24T03:00:42;19.65;;;18.55;;
11531;SDS011;5822;51.000;5.874;2023-04-24T03:03:08;20.15;;;18.95;;
11531;SDS011;5822;51.000;5.874;2023-04-24T03:05:34;20.57;;;19.37;;
11531;SDS011;5822;51.000;5.874;2023-04-24T03:08:00;19.80;;;18.60;;
11531;SDS011;5822;51.000;5.874;2023-04-24T03:10:25;20.90;;;19.60;;
11531;SDS011;5822;51.000;5.874;2023-04-24T03:12:51;19.30;;;18.20;;
11531;SDS011;5822;51.000;5.874;2023-04-24T03:15:17;19.83;;;18.70;;
11531;SDS011;5822;51.000;5.874;2023-04-24T03:17:42;20.20;;;19.02;;
11531;SDS011;5822;51.000;5.874;2023-04-24T03:20:08;20.50;;;19.20;;
11531;SDS011;5822;51.000;5.874;2023-04-24T03:22:34;19.57;;;18.47;;
11531;SDS011;5822;51.000;5.874;2023-04-24T03:25:00;19.03;;;17.93;;
11531;SDS011;5822;51.000;5.874;2023-04-24T03:27:26;19.63;;;18.52;;
11531;SDS011;5822;51.000;5.874;2023-04-24T03:29:52;19.63;;;18.45;;
11531;SDS011;5822;51.000;5.874;2023-04-24T03:32:20;19.00;;;17.90;;
11531;SDS011;5822;51.000;5.874;2023-04-24T03:34:47;19.90;;;18.73;;
11531;SDS011;5822;51.000;5.874;2023-04-24T03:37:16;21.30;;;20.00;;
11531;SDS011;5822;51.000;5.874;2023-04-24T03:39:42;20.13;;;19.00;;
11531;SDS011;5822;51.000;5.874;2023-04-24T03:42:08;20.52;;;19.33;;
11531;SDS011;5822;51.000;5.874;2023-04-24T03:44:34;19.60;;;18.50;;
11531;SDS011;5822;51.000;5.874;2023-04-24T03:47:00;19.50;;;18.40;;
11531;SDS011;5822;51.000;5.874;2023-04-24T03:49:28;19.30;;;18.20;;
11531;SDS011;5822;51.000;5.874;2023-04-24T03:51:54;19.98;;;18.83;;
11531;SDS011;5822;51.000;5.874;2023-04-24T03:54:20;19.80;;;18.67;;
11531;SDS011;5822;51.000;5.874;2023-04-24T03:56:45;20.45;;;19.15;;
11531;SDS011;5822;51.000;5.874;2023-04-24T03:59:11;20.73;;;19.52;;
11531;SDS011;5822;51.000;5.874;2023-04-24T04:01:38;21.70;;;20.40;;
11531;SDS011;5822;51.000;5.874;2023-04-24T04:04:05;20.67;;;19.48;;
11531;SDS011;5822;51.000;5.874;2023-04-24T04:06:31;20.35;;;19.15;;
11531;SDS011;5822;51.000;5.874;2023-04-24T04:08:57;20.02;;;18.83;;
11531;SDS011;5822;51.000;5.874;2023-04-24T04:11:23;19.92;;;18.83;;
11531;SDS011;5822;51.000;5.874;2023-04-24T04:13:49;22.30;;;20.90;;
11531;SDS011;5822;51.000;5.874;2023-04-24T04:16:15;22.10;;;20.70;;
11531;SDS011;5822;51.000;5.874;2023-04-24T04:18:44;22.83;;;21.42;;
11531;SDS011;5822;51.000;5.874;2023-04-24T04:21:10;23.23;;;21.83;;
11531;SDS011;5822;51.000;5.874;2023-04-24T04:23:36;23.00;;;21.60;;
11531;SDS011;5822;51.000;5.874;2023-04-24T04:26:02;22.20;;;20.90;;
11531;SDS011;5822;51.000;5.874;2023-04-24T04:28:28;22.75;;;21.35;;
11531;SDS011;5822;51.000;5.874;2023-04-24T04:30:55;22.98;;;21.58;;
11531;SDS011;5822;51.000;5.874;2023-04-24T04:33:22;22.27;;;20.92;;
11531;SDS011;5822;51.000;5.874;2023-04-24T04:35:49;20.80;;;19.60;;
11531;SDS011;5822;51.000;5.874;2023-04-24T04:38:17;21.10;;;19.90;;
11531;SDS011;5822;51.000;5.874;2023-04-24T04:40:45;22.48;;;21.08;;
11531;SDS011;5822;51.000;5.874;2023-04-24T04:43:11;22.60;;;21.20;;
11531;SDS011;5822;51.000;5.874;2023-04-24T04:45:38;22.25;;;20.85;;
11531;SDS011;5822;51.000;5.874;2023-04-24T04:48:05;22.77;;;21.30;;
11531;SDS011;5822;51.000;5.874;2023-04-24T04:50:32;22.25;;;20.85;;
11531;SDS011;5822;51.000;5.874;2023-04-24T04:52:58;22.00;;;20.63;;
11531;SDS011;5822;51.000;5.874;2023-04-24T04:55:24;21.43;;;20.03;;
11531;SDS011;5822;51.000;5.874;2023-04-24T04:57:50;21.27;;;19.98;;
11531;SDS011;5822;51.000;5.874;2023-04-24T05:00:16;21.05;;;19.75;;
11531;SDS011;5822;51.000;5.874;2023-04-24T05:02:42;22.20;;;20.80;;
11531;SDS011;5822;51.000;5.874;2023-04-24T05:05:08;21.93;;;20.63;;
11531;SDS011;5822;51.000;5.874;2023-04-24T05:07:34;23.10;;;21.60;;
11531;SDS011;5822;51.000;5.874;2023-04-24T05:10:00;23.97;;;22.37;;
11531;SDS011;5822;51.000;5.874;2023-04-24T05:12:25;23.73;;;22.13;;
11531;SDS011;5822;51.000;5.874;2023-04-24T05:14:51;24.70;;;22.95;;
11531;SDS011;5822;51.000;5.874;2023-04-24T05:17:17;23.52;;;21.92;;
11531;SDS011;5822;51.000;5.874;2023-04-24T05:19:43;23.45;;;21.85;;
11531;SDS011;5822;51.000;5.874;2023-04-24T05:22:09;23.90;;;22.20;;
11531;SDS011;5822;51.000;5.874;2023-04-24T05:24:35;23.73;;;22.13;;
11531;SDS011;5822;51.000;5.874;2023-04-24T05:27:04;22.98;;;21.38;;
11531;SDS011;5822;51.000;5.874;2023-04-24T05:29:31;22.63;;;21.13;;
11531;SDS011;5822;51.000;5.874;2023-04-24T05:31:58;23.00;;;21.40;;
11531;SDS011;5822;51.000;5.874;2023-04-24T05:34:23;23.85;;;22.15;;
11531;SDS011;5822;51.000;5.874;2023-04-24T05:36:49;23.60;;;22.00;;
11531;SDS011;5822;51.000;5.874;2023-04-24T05:39:16;23.40;;;21.80;;
11531;SDS011;5822;51.000;5.874;2023-04-24T05:41:42;23.38;;;21.77;;
11531;SDS011;5822;51.000;5.874;2023-04-24T05:44:08;22.45;;;20.92;;
11531;SDS011;5822;51.000;5.874;2023-04-24T05:46:34;22.60;;;21.00;;
11531;SDS011;5822;51.000;5.874;2023-04-24T05:48:59;22.27;;;20.70;;
11531;SDS011;5822;51.000;5.874;2023-04-24T05:51:25;22.20;;;20.70;;
11531;SDS011;5822;51.000;5.874;2023-04-24T05:53:51;22.83;;;21.23;;
11531;SDS011;5822;51.000;5.874;2023-04-24T05:56:16;23.20;;;21.60;;
11531;SDS011;5822;51.000;5.874;2023-04-24T05:58:43;22.00;;;20.50;;
11531;SDS011;5822;51.000;5.874;2023-04-24T06:01:11;22.25;;;20.70;;
11531;SDS011;5822;51.000;5.874;2023-04-24T06:03:37;22.95;;;21.35;;
11531;SDS011;5822;51.000;5.874;2023-04-24T06:06:05;23.73;;;22.13;;
11531;SDS011;5822;51.000;5.874;2023-04-24T06:08:31;25.42;;;23.73;;
11531;SDS011;5822;51.000;5.874;2023-04-24T06:10:57;24.77;;;23.17;;
11531;SDS011;5822;51.000;5.874;2023-04-24T06:13:23;27.15;;;25.45;;
11531;SDS011;5822;51.000;5.874;2023-04-24T06:15:49;29.33;;;27.52;;
11531;SDS011;5822;51.000;5.874;2023-04-24T06:18:16;39.42;;;37.30;;
11531;SDS011;5822;51.000;5.874;2023-04-24T06:20:42;45.05;;;42.65;;
11531;SDS011;5822;51.000;5.874;2023-04-24T06:23:08;48.57;;;46.07;;
11531;SDS011;5822;51.000;5.874;2023-04-24T06:25:34;44.15;;;41.83;;
11531;SDS011;5822;51.000;5.874;2023-04-24T06:28:00;35.25;;;33.15;;
11531;SDS011;5822;51.000;5.874;2023-04-24T06:30:26;30.45;;;28.65;;
11531;SDS011;5822;51.000;5.874;2023-04-24T06:32:53;25.92;;;24.33;;
11531;SDS011;5822;51.000;5.874;2023-04-24T06:35:18;28.93;;;27.13;;
11531;SDS011;5822;51.000;5.874;2023-04-24T06:37:44;28.63;;;26.83;;
11531;SDS011;5822;51.000;5.874;2023-04-24T06:40:10;29.02;;;27.23;;
11531;SDS011;5822;51.000;5.874;2023-04-24T06:42:36;28.70;;;26.90;;
11531;SDS011;5822;51.000;5.874;2023-04-24T06:45:02;29.20;;;27.30;;
11531;SDS011;5822;51.000;5.874;2023-04-24T06:47:28;27.63;;;25.83;;
11531;SDS011;5822;51.000;5.874;2023-04-24T06:49:54;31.20;;;29.30;;
11531;SDS011;5822;51.000;5.874;2023-04-24T06:52:20;31.50;;;29.60;;
11531;SDS011;5822;51.000;5.874;2023-04-24T06:54:46;29.88;;;27.98;;
11531;SDS011;5822;51.000;5.874;2023-04-24T06:57:11;29.50;;;27.60;;
11531;SDS011;5822;51.000;5.874;2023-04-24T06:59:37;30.55;;;28.65;;
11531;SDS011;5822;51.000;5.874;2023-04-24T07:02:03;29.20;;;27.30;;
11531;SDS011;5822;51.000;5.874;2023-04-24T07:04:29;28.00;;;26.20;;
11531;SDS011;5822;51.000;5.874;2023-04-24T07:06:56;30.60;;;28.63;;
11531;SDS011;5822;51.000;5.874;2023-04-24T07:09:23;28.80;;;27.00;;
11531;SDS011;5822;51.000;5.874;2023-04-24T07:11:50;31.02;;;29.13;;
11531;SDS011;5822;51.000;5.874;2023-04-24T07:14:16;33.80;;;31.70;;
11531;SDS011;5822;51.000;5.874;2023-04-24T07:16:42;29.67;;;27.77;;
11531;SDS011;5822;51.000;5.874;2023-04-24T07:19:08;29.88;;;27.98;;
11531;SDS011;5822;51.000;5.874;2023-04-24T07:21:34;29.65;;;27.75;;
11531;SDS011;5822;51.000;5.874;2023-04-24T07:24:00;34.28;;;32.03;;
11531;SDS011;5822;51.000;5.874;2023-04-24T07:26:26;33.05;;;30.90;;
11531;SDS011;5822;51.000;5.874;2023-04-24T07:28:53;31.75;;;29.75;;
11531;SDS011;5822;51.000;5.874;2023-04-24T07:31:19;31.30;;;29.30;;
11531;SDS011;5822;51.000;5.874;2023-04-24T07:33:45;31.70;;;29.70;;
11531;SDS011;5822;51.000;5.874;2023-04-24T07:36:11;31.52;;;29.63;;
11531;SDS011;5822;51.000;5.874;2023-04-24T07:38:43;28.90;;;27.10;;
11531;SDS011;5822;51.000;5.874;2023-04-24T07:41:12;29.15;;;27.35;;
11531;SDS011;5822;51.000;5.874;2023-04-24T07:43:40;28.17;;;26.48;;
11531;SDS011;5822;51.000;5.874;2023-04-24T07:46:07;29.33;;;27.58;;
11531;SDS011;5822;51.000;5.874;2023-04-24T07:48:36;27.25;;;25.50;;
11531;SDS011;5822;51.000;5.874;2023-04-24T07:51:01;28.40;;;26.65;;
11531;SDS011;5822;51.000;5.874;2023-04-24T07:53:27;27.73;;;26.02;;
11531;SDS011;5822;51.000;5.874;2023-04-24T07:55:54;28.10;;;26.50;;
11531;SDS011;5822;51.000;5.874;2023-04-24T07:58:20;25.15;;;23.55;;
11531;SDS011;5822;51.000;5.874;2023-04-24T08:00:46;25.10;;;23.58;;
11531;SDS011;5822;51.000;5.874;2023-04-24T08:03:12;23.92;;;22.48;;
11531;SDS011;5822;51.000;5.874;2023-04-24T08:05:38;26.27;;;24.67;;
11531;SDS011;5822;51.000;5.874;2023-04-24T08:08:04;24.23;;;22.73;;
11531;SDS011;5822;51.000;5.874;2023-04-24T08:10:30;25.17;;;23.57;;
11531;SDS011;5822;51.000;5.874;2023-04-24T08:12:55;25.10;;;23.50;;
11531;SDS011;5822;51.000;5.874;2023-04-24T08:15:21;23.87;;;22.47;;
11531;SDS011;5822;51.000;5.874;2023-04-24T08:17:47;23.13;;;21.73;;
11531;SDS011;5822;51.000;5.874;2023-04-24T08:20:12;23.40;;;22.00;;
11531;SDS011;5822;51.000;5.874;2023-04-24T08:22:41;23.90;;;22.40;;
11531;SDS011;5822;51.000;5.874;2023-04-24T08:25:08;24.52;;;23.02;;
11531;SDS011;5822;51.000;5.874;2023-04-24T08:27:35;25.00;;;23.40;;
11531;SDS011;5822;51.000;5.874;2023-04-24T08:30:02;25.55;;;23.95;;
11531;SDS011;5822;51.000;5.874;2023-04-24T08:32:28;25.40;;;23.80;;
11531;SDS011;5822;51.000;5.874;2023-04-24T08:34:54;25.50;;;24.00;;
11531;SDS011;5822;51.000;5.874;2023-04-24T08:37:21;23.95;;;22.50;;
11531;SDS011;5822;51.000;5.874;2023-04-24T08:39:47;23.48;;;22.02;;
11531;SDS011;5822;51.000;5.874;2023-04-24T08:42:14;24.35;;;22.75;;
11531;SDS011;5822;51.000;5.874;2023-04-24T08:44:41;24.92;;;23.33;;
11531;SDS011;5822;51.000;5.874;2023-04-24T08:47:07;26.50;;;24.80;;
11531;SDS011;5822;51.000;5.874;2023-04-24T08:49:33;23.97;;;22.47;;
11531;SDS011;5822;51.000;5.874;2023-04-24T08:52:02;26.15;;;24.45;;
11531;SDS011;5822;51.000;5.874;2023-04-24T08:54:28;22.67;;;21.37;;
11531;SDS011;5822;51.000;5.874;2023-04-24T08:56:54;25.48;;;23.98;;
11531;SDS011;5822;51.000;5.874;2023-04-24T08:59:25;22.63;;;21.23;;
11531;SDS011;5822;51.000;5.874;2023-04-24T09:01:52;24.00;;;22.50;;
11531;SDS011;5822;51.000;5.874;2023-04-24T09:04:19;22.17;;;20.80;;
11531;SDS011;5822;51.000;5.874;2023-04-24T09:06:47;22.73;;;21.33;;
11531;SDS011;5822;51.000;5.874;2023-04-24T09:09:14;22.60;;;21.20;;
11531;SDS011;5822;51.000;5.874;2023-04-24T09:11:41;23.90;;;22.50;;
11531;SDS011;5822;51.000;5.874;2023-04-24T09:14:08;23.40;;;22.00;;
11531;SDS011;5822;51.000;5.874;2023-04-24T09:16:35;22.38;;;21.08;;
11531;SDS011;5822;51.000;5.874;2023-04-24T09:19:01;21.47;;;20.17;;
11531;SDS011;5822;51.000;5.874;2023-04-24T09:21:31;22.37;;;21.07;;
11531;SDS011;5822;51.000;5.874;2023-04-24T09:24:02;22.70;;;21.30;;
11531;SDS011;5822;51.000;5.874;2023-04-24T09:26:32;22.65;;;21.25;;
11531;SDS011;5822;51.000;5.874;2023-04-24T09:29:00;23.83;;;22.35;;
11531;SDS011;5822;51.000;5.874;2023-04-24T09:31:29;24.00;;;22.50;;
11531;SDS011;5822;51.000;5.874;2023-04-24T09:34:02;23.25;;;21.85;;
11531;SDS011;5822;51.000;5.874;2023-04-24T09:36:34;22.63;;;21.33;;
11531;SDS011;5822;51.000;5.874;2023-04-24T09:39:04;23.42;;;21.92;;
11531;SDS011;5822;51.000;5.874;2023-04-24T09:41:53;23.02;;;21.63;;
11531;SDS011;5822;51.000;5.874;2023-04-24T09:44:23;20.75;;;19.45;;
11531;SDS011;5822;51.000;5.874;2023-04-24T09:49:20;20.40;;;19.10;;
11531;SDS011;5822;51.000;5.874;2023-04-24T09:52:06;21.67;;;20.38;;
11531;SDS011;5822;51.000;5.874;2023-04-24T09:54:33;22.40;;;20.90;;
11531;SDS011;5822;51.000;5.874;2023-04-24T09:56:59;22.10;;;20.70;;
11531;SDS011;5822;51.000;5.874;2023-04-24T09:59:27;22.27;;;20.88;;
11531;SDS011;5822;51.000;5.874;2023-04-24T10:01:54;22.20;;;20.88;;
11531;SDS011;5822;51.000;5.874;2023-04-24T10:04:21;22.27;;;20.88;;
11531;SDS011;5822;51.000;5.874;2023-04-24T10:06:49;22.70;;;21.40;;
11531;SDS011;5822;51.000;5.874;2023-04-24T10:09:20;21.33;;;20.02;;
11531;SDS011;5822;51.000;5.874;2023-04-24T10:11:47;21.27;;;19.98;;
11531;SDS011;5822;51.000;5.874;2023-04-24T10:14:15;21.63;;;20.33;;
11531;SDS011;5822;51.000;5.874;2023-04-24T10:16:42;22.17;;;20.77;;
11531;SDS011;5822;51.000;5.874;2023-04-24T10:19:09;22.02;;;20.63;;
11531;SDS011;5822;51.000;5.874;2023-04-24T10:21:35;22.33;;;20.93;;
11531;SDS011;5822;51.000;5.874;2023-04-24T10:24:07;24.85;;;23.25;;
11531;SDS011;5822;51.000;5.874;2023-04-24T10:26:37;23.80;;;22.27;;
11531;SDS011;5822;51.000;5.874;2023-04-24T10:29:05;24.00;;;22.50;;
11531;SDS011;5822;51.000;5.874;2023-04-24T10:31:34;23.67;;;22.17;;
11531;SDS011;5822;51.000;5.874;2023-04-24T10:34:02;24.25;;;22.83;;
11531;SDS011;5822;51.000;5.874;2023-04-24T10:36:30;24.42;;;23.02;;
11531;SDS011;5822;51.000;5.874;2023-04-24T10:38:58;23.52;;;22.15;;
11531;SDS011;5822;51.000;5.874;2023-04-24T10:41:25;25.97;;;24.30;;
11531;SDS011;5822;51.000;5.874;2023-04-24T10:44:04;24.20;;;22.65;;
11531;SDS011;5822;51.000;5.874;2023-04-24T10:46:31;25.25;;;23.65;;
11531;SDS011;5822;51.000;5.874;2023-04-24T10:48:57;23.63;;;22.23;;
11531;SDS011;5822;51.000;5.874;2023-04-24T10:51:23;24.60;;;23.10;;
11531;SDS011;5822;51.000;5.874;2023-04-24T10:54:23;23.95;;;22.35;;
11531;SDS011;5822;51.000;5.874;2023-04-24T10:56:56;24.35;;;22.77;;
11531;SDS011;5822;51.000;5.874;2023-04-24T11:02:45;24.42;;;22.83;;
11531;SDS011;5822;51.000;5.874;2023-04-24T11:05:17;24.83;;;23.23;;
11531;SDS011;5822;51.000;5.874;2023-04-24T11:13:10;26.25;;;24.65;;
11531;SDS011;5822;51.000;5.874;2023-04-24T11:15:35;24.65;;;23.15;;
11531;SDS011;5822;51.000;5.874;2023-04-24T11:18:01;24.50;;;23.00;;
11531;SDS011;5822;51.000;5.874;2023-04-24T11:20:27;24.00;;;22.50;;
11531;SDS011;5822;51.000;5.874;2023-04-24T11:22:53;25.30;;;23.70;;
11531;SDS011;5822;51.000;5.874;2023-04-24T11:25:20;25.90;;;24.30;;
11531;SDS011;5822;51.000;5.874;2023-04-24T11:27:47;25.67;;;24.08;;
11531;SDS011;5822;51.000;5.874;2023-04-24T11:30:18;25.25;;;23.75;;
11531;SDS011;5822;51.000;5.874;2023-04-24T11:32:49;21.63;;;20.13;;
11531;SDS011;5822;51.000;5.874;2023-04-24T11:37:53;22.38;;;20.90;;
11531;SDS011;5822;51.000;5.874;2023-04-24T11:40:20;21.83;;;20.33;;
11531;SDS011;5822;51.000;5.874;2023-04-24T11:42:50;22.77;;;21.17;;
11531;SDS011;5822;51.000;5.874;2023-04-24T11:45:17;21.50;;;20.10;;
11531;SDS011;5822;51.000;5.874;2023-04-24T11:47:52;21.50;;;20.10;;
11531;SDS011;5822;51.000;5.874;2023-04-24T11:50:18;21.50;;;20.10;;
11531;SDS011;5822;51.000;5.874;2023-04-24T11:52:48;22.50;;;21.00;;
11531;SDS011;5822;51.000;5.874;2023-04-24T11:57:44;22.17;;;20.77;;
11531;SDS011;5822;51.000;5.874;2023-04-24T12:02:43;21.80;;;20.50;;
11531;SDS011;5822;51.000;5.874;2023-04-24T12:05:18;21.15;;;19.75;;
11531;SDS011;5822;51.000;5.874;2023-04-24T12:07:48;19.43;;;18.23;;
11531;SDS011;5822;51.000;5.874;2023-04-24T12:10:13;18.70;;;17.60;;
11531;SDS011;5822;51.000;5.874;2023-04-24T12:12:40;20.63;;;19.23;;
11531;SDS011;5822;51.000;5.874;2023-04-24T12:15:08;20.35;;;19.13;;
11531;SDS011;5822;51.000;5.874;2023-04-24T12:17:35;21.38;;;19.98;;
11531;SDS011;5822;51.000;5.874;2023-04-24T12:20:04;20.50;;;19.20;;
11531;SDS011;5822;51.000;5.874;2023-04-24T12:22:48;20.95;;;19.55;;
11531;SDS011;5822;51.000;5.874;2023-04-24T12:25:15;20.10;;;18.90;;
11531;SDS011;5822;51.000;5.874;2023-04-24T12:27:46;21.83;;;20.52;;
11531;SDS011;5822;51.000;5.874;2023-04-24T12:30:17;21.05;;;19.65;;
11531;SDS011;5822;51.000;5.874;2023-04-24T12:32:43;20.10;;;18.90;;
11531;SDS011;5822;51.000;5.874;2023-04-24T12:35:11;21.30;;;19.92;;
11531;SDS011;5822;51.000;5.874;2023-04-24T12:37:37;21.05;;;19.75;;
11531;SDS011;5822;51.000;5.874;2023-04-24T12:40:10;20.30;;;19.10;;
11531;SDS011;5822;51.000;5.874;2023-04-24T12:45:10;19.30;;;18.10;;
11531;SDS011;5822;51.000;5.874;2023-04-24T12:47:40;19.30;;;18.10;;
11531;SDS011;5822;51.000;5.874;2023-04-24T12:50:07;19.42;;;18.23;;
11531;SDS011;5822;51.000;5.874;2023-04-24T12:52:34;19.67;;;18.48;;
11531;SDS011;5822;51.000;5.874;2023-04-24T12:55:00;19.05;;;17.88;;
11531;SDS011;5822;51.000;5.874;2023-04-24T12:57:27;18.70;;;17.58;;
11531;SDS011;5822;51.000;5.874;2023-04-24T12:59:54;18.50;;;17.40;;
11531;SDS011;5822;51.000;5.874;2023-04-24T13:02:21;18.90;;;17.80;;
11531;SDS011;5822;51.000;5.874;2023-04-24T13:04:48;18.95;;;17.75;;
11531;SDS011;5822;51.000;5.874;2023-04-24T13:07:14;19.87;;;18.67;;
11531;SDS011;5822;51.000;5.874;2023-04-24T13:09:40;20.88;;;19.58;;
11531;SDS011;5822;51.000;5.874;2023-04-24T13:12:07;20.67;;;19.40;;
11531;SDS011;5822;51.000;5.874;2023-04-24T13:14:34;20.33;;;19.13;;
11531;SDS011;5822;51.000;5.874;2023-04-24T13:17:00;21.40;;;20.10;;
11531;SDS011;5822;51.000;5.874;2023-04-24T13:19:26;20.75;;;19.50;;
11531;SDS011;5822;51.000;5.874;2023-04-24T13:21:53;21.95;;;20.55;;
11531;SDS011;5822;51.000;5.874;2023-04-24T13:24:20;21.90;;;20.60;;
11531;SDS011;5822;51.000;5.874;2023-04-24T13:26:49;21.60;;;20.30;;
11531;SDS011;5822;51.000;5.874;2023-04-24T13:29:15;22.10;;;20.70;;
11531;SDS011;5822;51.000;5.874;2023-04-24T13:31:41;20.90;;;19.60;;
11531;SDS011;5822;51.000;5.874;2023-04-24T13:34:07;21.70;;;20.30;;
11531;SDS011;5822;51.000;5.874;2023-04-24T13:36:33;20.87;;;19.67;;
11531;SDS011;5822;51.000;5.874;2023-04-24T13:38:59;21.60;;;20.30;;
11531;SDS011;5822;51.000;5.874;2023-04-24T13:41:24;21.30;;;19.90;;
11531;SDS011;5822;51.000;5.874;2023-04-24T13:43:50;21.83;;;20.50;;
11531;SDS011;5822;51.000;5.874;2023-04-24T13:46:16;21.10;;;19.80;;
11531;SDS011;5822;51.000;5.874;2023-04-24T13:48:42;22.80;;;21.38;;
11531;SDS011;5822;51.000;5.874;2023-04-24T13:51:07;21.63;;;20.33;;
11531;SDS011;5822;51.000;5.874;2023-04-24T13:53:33;21.75;;;20.45;;
11531;SDS011;5822;51.000;5.874;2023-04-24T13:56:03;22.20;;;20.90;;
11531;SDS011;5822;51.000;5.874;2023-04-24T13:58:28;21.98;;;20.67;;
11531;SDS011;5822;51.000;5.874;2023-04-24T14:00:55;21.23;;;19.92;;
11531;SDS011;5822;51.000;5.874;2023-04-24T14:03:20;21.55;;;20.25;;
11531;SDS011;5822;51.000;5.874;2023-04-24T14:05:49;21.50;;;20.20;;
11531;SDS011;5822;51.000;5.874;2023-04-24T14:08:15;22.35;;;20.95;;
11531;SDS011;5822;51.000;5.874;2023-04-24T14:10:40;21.55;;;20.25;;
11531;SDS011;5822;51.000;5.874;2023-04-24T14:13:07;20.40;;;19.20;;
11531;SDS011;5822;51.000;5.874;2023-04-24T14:15:33;20.50;;;19.23;;
11531;SDS011;5822;51.000;5.874;2023-04-24T14:18:00;21.17;;;19.87;;
11531;SDS011;5822;51.000;5.874;2023-04-24T14:20:26;21.23;;;19.93;;
11531;SDS011;5822;51.000;5.874;2023-04-24T14:22:52;20.90;;;19.70;;
11531;SDS011;5822;51.000;5.874;2023-04-24T14:25:18;20.23;;;19.02;;
11531;SDS011;5822;51.000;5.874;2023-04-24T14:27:44;20.10;;;18.90;;
11531;SDS011;5822;51.000;5.874;2023-04-24T14:30:10;20.30;;;19.17;;
11531;SDS011;5822;51.000;5.874;2023-04-24T14:32:38;20.10;;;18.90;;
11531;SDS011;5822;51.000;5.874;2023-04-24T14:35:05;20.23;;;19.03;;
11531;SDS011;5822;51.000;5.874;2023-04-24T14:37:31;20.83;;;19.60;;
11531;SDS011;5822;51.000;5.874;2023-04-24T14:39:57;20.55;;;19.35;;
11531;SDS011;5822;51.000;5.874;2023-04-24T14:42:23;20.42;;;19.23;;
11531;SDS011;5822;51.000;5.874;2023-04-24T14:44:49;20.05;;;18.85;;
11531;SDS011;5822;51.000;5.874;2023-04-24T14:47:15;20.33;;;19.13;;
11531;SDS011;5822;51.000;5.874;2023-04-24T14:49:42;19.70;;;18.50;;
11531;SDS011;5822;51.000;5.874;2023-04-24T14:52:09;19.90;;;18.70;;